Time;durP1;ratioP1;P1;durP2;ratioP2;P2;SDS_P1;SDS_P2;PMS_P1;PMS_P2;Temp;Humidity;BMP_temperature;BMP_pressure;BME280_temperature;BME280_humidity;BME280_pressure;Samples;Min_cycle;Max_cycle;Signal;HPM_P1;HPM_P2
2022/06/03 00:01:20;;;;;;;11.73;7.37;;;14.40;99.90;;;;;;5037094;28;20465;-42
2022/06/03 00:04:03;;;;;;;10.40;7.17;;;14.30;99.90;;;;;;5035910;28;20440;-41
2022/06/03 00:06:54;;;;;;;11.37;6.80;;;14.30;99.90;;;;;;5037435;28;20475;-43
2022/06/03 00:09:44;;;;;;;13.60;8.00;;;14.20;99.90;;;;;;5037155;28;20453;-45
2022/06/03 00:12:33;;;;;;;14.60;8.77;;;14.20;99.90;;;;;;5031729;28;20505;-37
2022/06/03 00:15:40;;;;;;;12.70;7.97;;;14.20;99.90;;;;;;5037233;28;20493;-52
2022/06/03 00:18:48;;;;;;;9.73;7.70;;;14.10;99.90;;;;;;5037068;28;20476;-41
2022/06/03 00:21:36;;;;;;;10.43;7.50;;;14.10;99.90;;;;;;5033417;28;20532;-49
2022/06/03 00:24:12;;;;;;;11.00;7.67;;;14.10;99.90;;;;;;5030180;28;20469;-44
2022/06/03 00:26:54;;;;;;;11.97;9.50;;;14.10;99.90;;;;;;5036110;28;20492;-50
2022/06/03 00:29:44;;;;;;;9.33;7.50;;;14.10;99.90;;;;;;5036658;28;20459;-41
2022/06/03 00:32:34;;;;;;;9.13;7.30;;;14.10;99.90;;;;;;5035097;28;20877;-40
2022/06/03 00:35:30;;;;;;;12.53;8.07;;;14.00;99.90;;;;;;5036283;28;20417;-48
2022/06/03 00:38:02;;;;;;;12.53;7.90;;;14.00;99.90;;;;;;5025335;28;20552;-39
2022/06/03 00:40:46;;;;;;;9.50;6.30;;;13.90;99.90;;;;;;5036445;28;20957;-48
2022/06/03 00:43:46;;;;;;;7.90;6.50;;;14.00;99.90;;;;;;5036763;28;20471;-43
2022/06/03 00:46:34;;;;;;;10.07;7.30;;;13.90;99.90;;;;;;5036547;28;20472;-45
2022/06/03 00:49:23;;;;;;;9.93;7.00;;;13.90;99.90;;;;;;5036214;28;20500;-54
2022/06/03 00:52:18;;;;;;;9.00;6.37;;;13.80;99.90;;;;;;5036458;28;20465;-41
2022/06/03 00:55:16;;;;;;;8.13;5.97;;;13.80;99.90;;;;;;5025977;28;20497;-46
2022/06/03 00:58:06;;;;;;;10.77;6.73;;;13.90;99.90;;;;;;5036088;28;20437;-46
2022/06/03 01:00:37;;;;;;;9.10;5.83;;;13.80;99.90;;;;;;5035911;28;20429;-58
2022/06/03 01:03:25;;;;;;;10.50;6.20;;;13.80;99.90;;;;;;5035452;28;20425;-43
2022/06/03 01:06:15;;;;;;;8.17;5.93;;;13.80;99.90;;;;;;5035402;28;20430;-45
2022/06/03 01:08:56;;;;;;;9.20;5.97;;;13.70;99.90;;;;;;5035743;28;20473;-47
2022/06/03 01:11:51;;;;;;;12.00;6.30;;;13.60;99.90;;;;;;5035798;28;20465;-48
2022/06/03 01:14:27;;;;;;;7.80;5.47;;;13.60;99.90;;;;;;5035649;28;20541;-43
2022/06/03 01:17:02;;;;;;;12.10;6.23;;;13.60;99.90;;;;;;5035891;28;20512;-48
2022/06/03 01:19:47;;;;;;;7.97;6.47;;;13.60;99.90;;;;;;5035789;28;20500;-47
2022/06/03 01:22:46;;;;;;;8.13;6.40;;;13.50;99.90;;;;;;5035911;28;20418;-37
2022/06/03 01:25:45;;;;;;;8.90;5.93;;;13.50;99.90;;;;;;5035425;28;20414;-45
2022/06/03 01:28:45;;;;;;;9.87;6.97;;;13.50;99.90;;;;;;5010408;28;20464;-47
2022/06/03 01:31:30;;;;;;;12.13;6.00;;;13.50;99.90;;;;;;5028667;28;20460;-45
2022/06/03 01:34:17;;;;;;;9.30;6.67;;;13.40;99.90;;;;;;5035322;28;20434;-48
2022/06/03 01:37:03;;;;;;;7.70;5.80;;;13.40;99.90;;;;;;5035756;28;20786;-47
2022/06/03 01:39:56;;;;;;;8.67;5.40;;;13.50;99.90;;;;;;5034943;28;20449;-50
2022/06/03 01:43:02;;;;;;;6.33;5.40;;;13.40;99.90;;;;;;5034890;28;20437;-42
2022/06/03 01:45:44;;;;;;;7.13;5.83;;;13.40;99.90;;;;;;5026076;28;20508;-42
2022/06/03 01:48:26;;;;;;;12.77;5.60;;;13.40;99.90;;;;;;5035283;28;20405;-47
2022/06/03 01:51:25;;;;;;;8.47;5.53;;;13.30;99.90;;;;;;5035224;28;20536;-36
2022/06/03 01:54:33;;;;;;;8.90;5.37;;;13.30;99.90;;;;;;5026736;28;20461;-47
2022/06/03 01:57:25;;;;;;;6.80;5.30;;;13.30;99.90;;;;;;5035037;28;20469;-46
2022/06/03 02:00:31;;;;;;;8.00;5.47;;;13.30;99.90;;;;;;5035300;28;20464;-47
2022/06/03 02:03:36;;;;;;;7.70;5.30;;;13.30;99.90;;;;;;5029846;28;20471;-49
2022/06/03 02:06:34;;;;;;;9.33;5.80;;;13.30;99.90;;;;;;5034584;28;20429;-41
2022/06/03 02:09:40;;;;;;;5.40;4.87;;;13.30;99.90;;;;;;5025571;28;20461;-49
2022/06/03 02:12:29;;;;;;;9.00;5.53;;;13.30;99.90;;;;;;5034511;28;20461;-44
2022/06/03 02:15:32;;;;;;;8.47;5.57;;;13.30;99.90;;;;;;5024448;28;20500;-46
2022/06/03 02:18:27;;;;;;;7.00;5.43;;;13.30;99.90;;;;;;5033102;28;20429;-51
2022/06/03 02:21:17;;;;;;;11.60;5.33;;;13.30;99.90;;;;;;5030588;28;20552;-43
2022/06/03 02:24:30;;;;;;;9.33;5.70;;;13.30;99.90;;;;;;5034476;28;20413;-49
2022/06/03 02:27:32;;;;;;;5.93;5.20;;;13.30;99.90;;;;;;5034946;28;20467;-44
2022/06/03 02:30:36;;;;;;;5.60;4.80;;;13.20;99.90;;;;;;5027745;28;20421;-46
2022/06/03 02:33:34;;;;;;;8.20;4.83;;;13.20;99.90;;;;;;5033955;28;20469;-41
2022/06/03 02:36:41;;;;;;;6.87;4.50;;;13.20;99.90;;;;;;5030748;28;20455;-43
2022/06/03 02:39:24;;;;;;;7.40;5.30;;;13.20;99.90;;;;;;5030962;28;20433;-44
2022/06/03 02:42:10;;;;;;;7.83;4.90;;;13.10;99.90;;;;;;5034749;28;20512;-46
2022/06/03 02:45:08;;;;;;;7.93;5.77;;;13.10;99.90;;;;;;5026833;28;20445;-39
2022/06/03 02:47:53;;;;;;;9.60;5.40;;;13.10;99.90;;;;;;5034086;28;20508;-44
2022/06/03 02:50:45;;;;;;;8.40;5.57;;;13.10;99.90;;;;;;5027575;28;20425;-42
2022/06/03 02:53:51;;;;;;;6.83;5.27;;;13.10;99.90;;;;;;5029458;28;20505;-43
2022/06/03 02:56:35;;;;;;;6.43;5.40;;;13.10;99.90;;;;;;5037958;28;20432;-40
2022/06/03 02:59:49;;;;;;;7.90;5.00;;;13.10;99.90;;;;;;5038417;28;20492;-56
2022/06/03 03:02:38;;;;;;;9.43;5.90;;;13.10;99.90;;;;;;5038618;28;20447;-46
2022/06/03 03:05:30;;;;;;;10.10;5.60;;;13.10;99.90;;;;;;5037531;28;20473;-43
2022/06/03 03:08:19;;;;;;;7.73;5.37;;;13.00;99.90;;;;;;5038481;28;20462;-47
2022/06/03 03:11:15;;;;;;;5.63;4.67;;;13.10;99.90;;;;;;5037900;28;20536;-38
2022/06/03 03:14:14;;;;;;;8.43;5.67;;;13.10;99.90;;;;;;5030867;28;20517;-47
2022/06/03 03:17:14;;;;;;;8.47;5.50;;;13.10;99.90;;;;;;5038034;28;20474;-46
2022/06/03 03:19:59;;;;;;;6.87;5.53;;;13.10;99.90;;;;;;5037861;28;20445;-43
2022/06/03 03:23:02;;;;;;;12.20;6.60;;;13.10;99.90;;;;;;5037892;28;20468;-44
2022/06/03 03:25:37;;;;;;;10.67;5.60;;;13.10;99.90;;;;;;5037637;28;20428;-42
2022/06/03 03:28:45;;;;;;;7.93;5.87;;;13.10;99.90;;;;;;5032957;28;20902;-50
2022/06/03 03:31:56;;;;;;;12.37;7.23;;;13.10;99.90;;;;;;5031395;28;20531;-51
2022/06/03 03:34:35;;;;;;;11.00;6.37;;;13.20;99.90;;;;;;5036912;28;20531;-48
2022/06/03 03:37:30;;;;;;;7.63;5.87;;;13.10;99.90;;;;;;5030822;28;20468;-50
2022/06/03 03:40:19;;;;;;;10.33;6.40;;;13.20;99.90;;;;;;5031675;28;20432;-48
2022/06/03 03:43:17;;;;;;;7.20;6.07;;;13.20;99.90;;;;;;5036434;28;20418;-53
2022/06/03 03:46:15;;;;;;;10.80;7.67;;;13.20;99.90;;;;;;5033772;28;20456;-41
2022/06/03 03:49:26;;;;;;;10.00;6.73;;;13.20;99.90;;;;;;5036773;28;20452;-48
2022/06/03 03:52:12;;;;;;;11.20;6.30;;;13.20;99.90;;;;;;5037105;28;20476;-43
2022/06/03 03:54:59;;;;;;;10.43;7.57;;;13.30;99.90;;;;;;5036934;28;20429;-47
2022/06/03 03:58:02;;;;;;;8.17;6.63;;;13.30;99.90;;;;;;5030524;28;20418;-50
2022/06/03 04:00:54;;;;;;;11.27;7.00;;;13.40;99.90;;;;;;5036857;28;20475;-43
2022/06/03 04:03:44;;;;;;;8.07;6.43;;;13.40;99.90;;;;;;5030434;28;20453;-49
2022/06/03 04:06:45;;;;;;;12.30;8.10;;;13.40;99.90;;;;;;5036491;28;20455;-42
2022/06/03 04:09:49;;;;;;;7.27;5.90;;;13.40;99.90;;;;;;5036525;28;20432;-37
2022/06/03 04:12:47;;;;;;;9.73;7.00;;;13.40;99.90;;;;;;5036424;28;20498;-41
2022/06/03 04:15:51;;;;;;;13.30;7.83;;;13.40;99.90;;;;;;5036160;28;20425;-51
2022/06/03 04:18:54;;;;;;;10.03;7.73;;;13.40;99.90;;;;;;5036814;28;20464;-43
2022/06/03 04:21:38;;;;;;;13.13;6.97;;;13.50;99.90;;;;;;5035957;28;20508;-45
2022/06/03 04:24:44;;;;;;;13.83;7.37;;;13.50;99.90;;;;;;5036776;28;20488;-46
2022/06/03 04:27:34;;;;;;;7.90;6.97;;;13.50;99.90;;;;;;5035864;28;20441;-44
2022/06/03 04:30:37;;;;;;;8.90;6.00;;;13.60;99.90;;;;;;5036465;28;20472;-47
2022/06/03 04:33:49;;;;;;;9.70;6.73;;;13.60;99.90;;;;;;5035927;28;20536;-47
2022/06/03 04:37:02;;;;;;;7.90;6.73;;;13.70;99.90;;;;;;5035854;28;20453;-43
2022/06/03 04:40:12;;;;;;;10.07;7.80;;;13.70;99.90;;;;;;5036617;28;20461;-40
2022/06/03 04:43:28;;;;;;;8.00;6.77;;;13.70;99.90;;;;;;4981602;28;20574;-45
2022/06/03 04:46:23;;;;;;;9.03;7.07;;;13.80;99.90;;;;;;5036335;28;20425;-48
2022/06/03 04:49:22;;;;;;;7.83;7.03;;;13.90;99.90;;;;;;5028660;28;20473;-45
2022/06/03 04:52:31;;;;;;;10.07;7.80;;;13.90;99.90;;;;;;5027320;28;20456;-50
2022/06/03 04:55:46;;;;;;;8.47;7.50;;;14.00;99.90;;;;;;5035940;28;20479;-41
2022/06/03 04:59:06;;;;;;;7.83;6.93;;;14.10;99.90;;;;;;5036380;28;20444;-44
2022/06/03 05:02:32;;;;;;;7.73;6.80;;;14.20;99.90;;;;;;5036800;28;20453;-45
2022/06/03 05:05:32;;;;;;;7.93;5.90;;;14.30;99.90;;;;;;4975432;29;20436;-36
2022/06/03 05:08:31;;;;;;;5.30;4.80;;;14.40;99.90;;;;;;4972804;29;20490;-43
2022/06/03 05:11:51;;;;;;;7.00;5.93;;;14.50;99.90;;;;;;5023783;28;20516;-52
2022/06/03 05:15:02;;;;;;;6.77;4.73;;;14.50;99.90;;;;;;5035743;28;20528;-44
2022/06/03 05:18:18;;;;;;;6.90;5.53;;;14.60;99.90;;;;;;5029277;28;20429;-49
2022/06/03 05:21:05;;;;;;;6.40;5.13;;;14.70;99.90;;;;;;5034950;28;20441;-48
2022/06/03 05:23:56;;;;;;;7.13;5.20;;;14.80;99.90;;;;;;5036130;28;20481;-47
2022/06/03 05:27:04;;;;;;;6.57;4.80;;;14.90;99.90;;;;;;5035697;28;20544;-47
2022/06/03 05:29:57;;;;;;;5.30;4.43;;;15.00;99.90;;;;;;5035681;28;20460;-42
2022/06/03 05:32:49;;;;;;;6.80;4.43;;;15.20;99.90;;;;;;5036029;28;20819;-41
2022/06/03 05:35:47;;;;;;;6.60;4.40;;;15.40;99.90;;;;;;5033227;28;20436;-43
2022/06/03 05:38:55;;;;;;;5.17;4.37;;;15.50;99.90;;;;;;5022458;28;20457;-44
2022/06/03 05:44:50;;;;;;;9.63;4.87;;;15.50;99.90;;;;;;5036148;28;20464;-42
2022/06/03 05:47:24;;;;;;;4.87;4.40;;;15.60;99.90;;;;;;5029701;28;20472;-43
2022/06/03 05:50:00;;;;;;;5.60;4.33;;;15.70;99.90;;;;;;5034137;28;20496;-42
2022/06/03 05:52:40;;;;;;;6.20;4.97;;;15.80;99.90;;;;;;5025439;28;20495;-40
2022/06/03 05:55:28;;;;;;;10.40;4.40;;;15.90;99.90;;;;;;5034157;28;20460;-45
2022/06/03 05:58:11;;;;;;;7.53;4.10;;;15.90;99.90;;;;;;5035817;28;20540;-43
2022/06/03 06:00:59;;;;;;;7.30;3.70;;;16.00;99.90;;;;;;5035101;28;20464;-44
2022/06/03 06:03:35;;;;;;;11.67;4.17;;;16.10;99.90;;;;;;5035336;28;20528;-42
2022/06/03 06:06:20;;;;;;;4.13;3.63;;;16.40;99.90;;;;;;5035468;28;20433;-45
2022/06/03 06:08:54;;;;;;;3.63;2.90;;;16.60;99.90;;;;;;5034857;28;20532;-40
2022/06/03 06:11:31;;;;;;;5.03;3.50;;;16.70;99.90;;;;;;5035247;28;20496;-43
2022/06/03 06:14:20;;;;;;;7.13;3.40;;;16.70;99.90;;;;;;5035153;28;20489;-49
2022/06/03 06:16:47;;;;;;;3.63;3.10;;;16.80;99.90;;;;;;5035132;28;20421;-50
2022/06/03 06:19:35;;;;;;;5.40;3.07;;;16.90;99.90;;;;;;5034822;28;20465;-46
2022/06/03 06:22:10;;;;;;;3.83;2.20;;;17.00;99.90;;;;;;5035283;28;20445;-39
2022/06/03 06:24:50;;;;;;;7.03;4.37;;;17.00;99.90;;;;;;5034909;28;20456;-41
2022/06/03 06:27:54;;;;;;;5.37;3.30;;;17.10;99.90;;;;;;5034854;28;20503;-44
2022/06/03 06:30:36;;;;;;;5.33;3.00;;;17.10;99.90;;;;;;5033025;28;20469;-49
2022/06/03 06:33:18;;;;;;;3.20;2.30;;;17.20;99.90;;;;;;5032179;28;20491;-46
2022/06/03 06:36:20;;;;;;;3.93;2.80;;;17.30;99.90;;;;;;5035296;28;20440;-39
2022/06/03 06:38:56;;;;;;;4.93;2.67;;;17.50;99.90;;;;;;5030983;28;20493;-44
2022/06/03 06:41:35;;;;;;;4.43;2.33;;;17.60;99.90;;;;;;5034555;28;20423;-53
2022/06/03 06:44:08;;;;;;;3.80;2.47;;;17.70;99.90;;;;;;5034635;28;20456;-43
2022/06/03 06:46:45;;;;;;;3.80;2.43;;;17.70;99.90;;;;;;5035070;28;20409;-44
2022/06/03 06:49:25;;;;;;;3.60;3.00;;;17.80;99.90;;;;;;5025715;28;20516;-47
2022/06/03 06:52:21;;;;;;;2.40;2.10;;;17.90;99.90;;;;;;5016534;28;20489;-38
2022/06/03 06:54:59;;;;;;;3.73;2.30;;;18.00;99.90;;;;;;5025266;28;20556;-46
2022/06/03 06:57:30;;;;;;;3.10;2.47;;;18.10;99.90;;;;;;5033357;28;20459;-51
2022/06/03 07:00:05;;;;;;;5.40;2.50;;;18.30;99.90;;;;;;5034419;28;20457;-49
2022/06/03 07:02:36;;;;;;;4.20;2.43;;;18.40;99.90;;;;;;5028726;28;20454;-46
2022/06/03 07:05:09;;;;;;;3.30;2.63;;;18.50;99.90;;;;;;5032533;28;20552;-43
2022/06/03 07:07:39;;;;;;;4.73;3.60;;;18.70;99.90;;;;;;5034363;28;20425;-48
2022/06/03 07:10:11;;;;;;;3.20;2.53;;;19.00;99.90;;;;;;5034240;28;20510;-37
2022/06/03 07:12:43;;;;;;;2.80;2.40;;;19.20;99.90;;;;;;5034824;28;20473;-46
2022/06/03 07:15:14;;;;;;;3.53;2.20;;;19.50;99.90;;;;;;5034826;28;20481;-43
2022/06/03 07:20:43;;;;;;;3.30;2.00;;;21.60;99.90;;;;;;5034843;28;20444;-46
2022/06/03 07:23:16;;;;;;;3.23;1.73;;;24.00;99.90;;;;;;5035101;28;20429;-47
2022/06/03 07:25:54;;;;;;;3.70;3.07;;;26.20;91.70;;;;;;5034721;28;20414;-51
2022/06/03 07:28:31;;;;;;;2.93;2.57;;;27.60;78.80;;;;;;5034900;28;20472;-41
2022/06/03 07:31:09;;;;;;;4.03;2.77;;;29.20;71.20;;;;;;5030725;28;20496;-57
2022/06/03 07:33:42;;;;;;;2.17;1.93;;;31.10;60.60;;;;;;5029418;28;20465;-44
2022/06/03 07:36:14;;;;;;;3.50;2.10;;;32.40;52.10;;;;;;5033659;28;20485;-52
2022/06/03 07:38:47;;;;;;;3.00;2.10;;;33.10;47.70;;;;;;5032161;28;20482;-41
2022/06/03 07:41:20;;;;;;;4.97;2.20;;;33.60;45.80;;;;;;5035360;28;20436;-46
2022/06/03 07:43:52;;;;;;;2.80;1.83;;;34.30;43.70;;;;;;5038518;28;20448;-42
2022/06/03 07:46:25;;;;;;;2.33;2.13;;;34.90;42.30;;;;;;5038540;28;20456;-44
2022/06/03 07:48:52;;;;;;;2.40;2.20;;;35.20;40.40;;;;;;5030898;28;20476;-47
2022/06/03 07:51:26;;;;;;;3.83;2.03;;;35.10;39.80;;;;;;5036423;28;20557;-48
2022/06/03 07:53:59;;;;;;;4.03;1.93;;;35.30;38.30;;;;;;5038371;28;20491;-47
2022/06/03 07:56:28;;;;;;;2.20;2.00;;;35.60;38.30;;;;;;5038535;28;20508;-49
2022/06/03 07:58:57;;;;;;;2.23;2.03;;;35.70;37.10;;;;;;5037572;28;20431;-50
2022/06/03 08:01:28;;;;;;;2.80;2.60;;;35.70;37.70;;;;;;5035994;28;20529;-46
2022/06/03 08:03:55;;;;;;;2.97;2.50;;;35.70;37.00;;;;;;5037213;28;20474;-45
2022/06/03 08:06:30;;;;;;;10.30;3.43;;;35.70;36.60;;;;;;5036275;28;20460;-48
2022/06/03 08:11:44;;;;;;;4.30;2.40;;;35.70;35.60;;;;;;5035610;28;20433;-50
2022/06/03 08:14:11;;;;;;;2.20;2.00;;;35.40;35.60;;;;;;5036824;28;20495;-47
2022/06/03 08:16:42;;;;;;;2.67;2.47;;;35.30;35.70;;;;;;5036026;28;20448;-46
2022/06/03 08:19:12;;;;;;;2.67;2.47;;;34.80;35.30;;;;;;5035058;28;20491;-49
2022/06/03 08:21:47;;;;;;;3.80;2.63;;;34.40;36.00;;;;;;5028041;28;20440;-52
2022/06/03 08:24:20;;;;;;;3.53;3.03;;;34.70;37.50;;;;;;5034178;28;20429;-43
2022/06/03 08:26:51;;;;;;;2.90;2.10;;;34.90;36.80;;;;;;5037272;28;20437;-44
2022/06/03 08:29:27;;;;;;;3.43;2.47;;;35.30;36.20;;;;;;5037615;28;20449;-48
2022/06/03 08:31:57;;;;;;;4.50;3.00;;;35.40;35.30;;;;;;5029107;28;20488;-50
2022/06/03 08:34:27;;;;;;;5.10;4.60;;;34.90;35.40;;;;;;5033942;28;20461;-47
2022/06/03 08:36:55;;;;;;;4.23;2.37;;;34.80;35.70;;;;;;5029269;28;20490;-46
2022/06/03 08:39:25;;;;;;;3.73;2.40;;;35.00;36.20;;;;;;5037935;28;20429;-44
2022/06/03 08:42:09;;;;;;;2.97;2.53;;;35.50;35.10;;;;;;5036523;28;20491;-48
2022/06/03 08:45:03;;;;;;;2.33;2.13;;;35.60;35.10;;;;;;5035649;28;20513;-48
2022/06/03 08:47:41;;;;;;;3.23;2.50;;;35.70;35.10;;;;;;5035057;28;20473;-52
2022/06/03 08:50:22;;;;;;;2.90;2.70;;;35.90;34.30;;;;;;5035520;28;20460;-44
2022/06/03 08:52:56;;;;;;;2.70;2.50;;;36.00;34.00;;;;;;5034916;28;20469;-47
2022/06/03 08:55:42;;;;;;;2.63;2.30;;;35.80;34.10;;;;;;5035455;28;20476;-49
2022/06/03 08:58:19;;;;;;;3.20;2.90;;;35.50;34.60;;;;;;5031993;28;20500;-51
2022/06/03 09:00:56;;;;;;;2.60;2.40;;;35.30;35.00;;;;;;5036178;28;20409;-49
2022/06/03 09:03:27;;;;;;;2.30;2.10;;;35.30;33.90;;;;;;5034258;28;20498;-49
2022/06/03 09:05:59;;;;;;;3.00;2.80;;;35.00;34.30;;;;;;5035552;28;20461;-48
2022/06/03 09:08:34;;;;;;;2.00;1.83;;;34.80;34.00;;;;;;5034165;28;20458;-51
2022/06/03 09:11:04;;;;;;;3.10;2.23;;;34.50;34.10;;;;;;5034527;28;20468;-49
2022/06/03 09:13:40;;;;;;;2.33;2.10;;;34.20;35.40;;;;;;5035169;28;20475;-48
2022/06/03 09:16:10;;;;;;;2.53;2.33;;;34.20;35.90;;;;;;5034974;28;20499;-45
2022/06/03 09:18:47;;;;;;;1.97;1.87;;;34.30;35.10;;;;;;5034006;28;20441;-48
2022/06/03 09:21:19;;;;;;;2.83;1.90;;;34.00;35.10;;;;;;5033418;28;20523;-50
2022/06/03 09:23:54;;;;;;;3.13;2.83;;;34.00;36.20;;;;;;5035007;28;20465;-51
2022/06/03 09:26:25;;;;;;;2.93;2.00;;;34.10;35.50;;;;;;5034608;28;20468;-47
2022/06/03 09:28:54;;;;;;;2.17;2.00;;;34.00;35.10;;;;;;5033581;28;20474;-52
2022/06/03 09:31:25;;;;;;;2.07;1.90;;;34.00;35.50;;;;;;5035257;28;20444;-50
2022/06/03 09:33:57;;;;;;;3.03;2.27;;;34.20;34.10;;;;;;5033690;28;20457;-50
2022/06/03 09:36:25;;;;;;;2.53;2.17;;;34.20;33.80;;;;;;5029831;28;20525;-48
2022/06/03 09:38:58;;;;;;;3.40;2.63;;;34.10;34.80;;;;;;5032626;28;20469;-56
2022/06/03 09:41:28;;;;;;;2.90;2.60;;;34.00;35.50;;;;;;5032625;28;20430;-49
2022/06/03 09:43:57;;;;;;;2.97;2.30;;;34.00;35.50;;;;;;5028046;28;20551;-47
2022/06/03 09:46:28;;;;;;;3.17;2.87;;;34.00;35.60;;;;;;5030645;28;20524;-48
2022/06/03 09:49:09;;;;;;;7.10;2.77;;;34.00;36.90;;;;;;5072664;22;20477;-39
2022/06/03 09:54:46;;;;;;;2.80;2.60;;;34.20;35.90;;;;;;5054437;28;20460;-48
2022/06/03 09:57:26;;;;;;;3.70;2.47;;;34.20;36.00;;;;;;5054002;28;20428;-48
2022/06/03 10:00:08;;;;;;;3.00;2.67;;;34.10;35.90;;;;;;5053765;28;20444;-48
2022/06/03 10:02:37;;;;;;;2.73;2.53;;;34.20;35.40;;;;;;5053745;28;20468;-53
2022/06/03 10:05:18;;;;;;;;;;;;;;;;;;;;;
2022/06/03 10:07:47;;;;;;;4.40;2.40;;;33.70;37.40;;;;;;5053516;28;20462;-48
2022/06/03 10:13:03;;;;;;;3.37;2.30;;;33.50;36.30;;;;;;5053421;28;20411;-51
2022/06/03 10:15:41;;;;;;;2.80;2.50;;;33.30;36.60;;;;;;5054665;28;20476;-45
2022/06/03 10:18:24;;;;;;;2.80;2.60;;;33.20;37.30;;;;;;5053919;28;20448;-47
2022/06/03 10:20:56;;;;;;;2.33;2.13;;;33.40;37.00;;;;;;5043563;28;20472;-41
2022/06/03 10:23:29;;;;;;;3.07;2.30;;;33.40;35.80;;;;;;5054244;28;20497;-46
2022/06/03 10:26:01;;;;;;;4.13;2.77;;;33.30;36.10;;;;;;5052804;28;20447;-48
2022/06/03 10:28:35;;;;;;;4.20;2.80;;;33.10;36.50;;;;;;5052479;28;20500;-46
2022/06/03 10:31:05;;;;;;;3.00;2.03;;;32.70;37.90;;;;;;5049639;28;20435;-43
2022/06/03 10:33:33;;;;;;;3.20;2.77;;;31.90;37.30;;;;;;5052111;28;20468;-45
2022/06/03 10:36:03;;;;;;;3.57;2.43;;;31.30;37.90;;;;;;5051177;28;20468;-46
2022/06/03 10:38:32;;;;;;;3.20;2.90;;;31.10;40.50;;;;;;5052249;28;20472;-47
2022/06/03 10:41:05;;;;;;;3.80;2.57;;;31.20;39.40;;;;;;5053852;28;20431;-48
2022/06/03 10:43:34;;;;;;;5.50;4.63;;;31.00;38.80;;;;;;5053352;28;20503;-49
2022/06/03 10:46:09;;;;;;;3.63;3.33;;;30.90;40.20;;;;;;5051762;28;20443;-46
2022/06/03 10:48:36;;;;;;;4.70;2.53;;;30.80;40.20;;;;;;5052739;28;20448;-46
2022/06/03 11:01:06;;;;;;;3.00;2.80;;;30.60;40.50;;;;;;5053109;28;20547;-51
2022/06/03 11:02:31;;;;;;;3.10;2.60;;;29.40;41.30;;;;;;5050351;28;20463;-45
2022/06/03 11:05:14;;;;;;;2.43;2.03;;;29.30;41.40;;;;;;5052664;28;20479;-48
2022/06/03 11:07:42;;;;;;;3.17;2.87;;;29.00;41.80;;;;;;5051642;28;20498;-49
2022/06/03 11:10:13;;;;;;;4.93;2.63;;;28.90;42.80;;;;;;5053450;28;20441;-50
2022/06/03 11:12:40;;;;;;;2.97;2.77;;;28.80;42.00;;;;;;5047902;28;20491;-53
2022/06/03 11:15:31;;;;;;;3.90;2.80;;;28.70;42.40;;;;;;5050440;28;20463;-48
2022/06/03 11:17:59;;;;;;;3.60;2.57;;;28.60;43.30;;;;;;5056598;28;20456;-46
2022/06/03 11:20:34;;;;;;;2.60;2.20;;;28.50;43.70;;;;;;5058511;28;20440;-44
2022/06/03 11:23:07;;;;;;;2.80;2.60;;;28.50;42.90;;;;;;5058304;28;20464;-49
2022/06/03 11:25:38;;;;;;;7.10;2.40;;;28.50;43.20;;;;;;5054187;28;20464;-44
2022/06/03 11:28:09;;;;;;;2.20;2.00;;;28.50;42.20;;;;;;5054927;28;20428;-51
2022/06/03 11:30:46;;;;;;;3.20;2.37;;;28.30;42.30;;;;;;5054043;28;20528;-46
2022/06/03 11:33:16;;;;;;;2.63;2.33;;;28.10;43.00;;;;;;5054796;28;20466;-51
2022/06/03 11:35:47;;;;;;;3.70;2.40;;;27.90;42.00;;;;;;5054037;28;20490;-42
2022/06/03 11:38:21;;;;;;;3.40;2.40;;;27.70;42.70;;;;;;5057041;28;20444;-42
2022/06/03 11:40:54;;;;;;;3.37;3.03;;;27.70;44.20;;;;;;5056890;28;20734;-46
2022/06/03 11:43:26;;;;;;;2.70;2.47;;;27.80;45.10;;;;;;5052572;28;20427;-51
2022/06/03 11:46:00;;;;;;;2.40;2.23;;;27.70;43.50;;;;;;5056461;28;20460;-50
2022/06/03 11:48:32;;;;;;;3.87;2.80;;;27.70;43.90;;;;;;5057728;28;20440;-42
2022/06/03 11:51:00;;;;;;;3.17;2.37;;;27.60;44.80;;;;;;5055944;28;20456;-48
2022/06/03 11:53:32;;;;;;;3.07;2.53;;;27.50;44.60;;;;;;5054074;28;20421;-50
2022/06/03 11:56:02;;;;;;;3.23;2.27;;;27.60;44.80;;;;;;5057697;28;20453;-48
2022/06/03 11:58:47;;;;;;;4.07;3.23;;;27.60;43.90;;;;;;5046531;28;20458;-48
2022/06/03 12:01:20;;;;;;;2.73;2.53;;;27.70;45.30;;;;;;5056138;28;20488;-45
2022/06/03 12:03:55;;;;;;;3.40;2.70;;;27.70;44.60;;;;;;5056563;28;20441;-46
2022/06/03 12:06:28;;;;;;;4.63;1.80;;;27.70;44.10;;;;;;5055796;28;20769;-44
2022/06/03 12:09:00;;;;;;;2.53;2.27;;;27.60;44.20;;;;;;5054922;28;20511;-51
2022/06/03 12:14:34;;;;;;;2.40;2.20;;;27.60;43.80;;;;;;5057340;28;20479;-54
2022/06/03 12:17:22;;;;;;;4.97;2.40;;;27.60;44.00;;;;;;5055298;28;20451;-53
2022/06/03 12:19:51;;;;;;;3.97;2.90;;;27.60;44.20;;;;;;5056596;28;20479;-53
2022/06/03 12:22:41;;;;;;;3.30;2.20;;;27.60;44.90;;;;;;5056850;28;20448;-44
2022/06/03 12:25:51;;;;;;;2.43;2.23;;;27.40;43.60;;;;;;5057290;28;20475;-40
2022/06/03 12:28:24;;;;;;;2.27;2.07;;;27.30;43.70;;;;;;5055389;28;20496;-45
2022/06/03 12:30:54;;;;;;;1.93;1.83;;;27.20;42.80;;;;;;5056998;28;20502;-45
2022/06/03 12:33:26;;;;;;;2.53;2.33;;;27.20;43.00;;;;;;5057055;28;20432;-45
2022/06/03 12:36:09;;;;;;;2.67;2.47;;;27.30;43.60;;;;;;5056477;28;20484;-48
2022/06/03 12:38:54;;;;;;;2.43;2.23;;;27.40;43.10;;;;;;5056153;28;20440;-47
2022/06/03 12:41:58;;;;;;;2.70;2.50;;;27.30;45.30;;;;;;5056745;28;20500;-45
2022/06/03 12:44:52;;;;;;;2.57;2.37;;;27.30;43.90;;;;;;5055896;28;20424;-48
2022/06/03 12:47:45;;;;;;;3.27;2.63;;;27.30;43.90;;;;;;5051783;28;20506;-44
2022/06/03 12:50:32;;;;;;;2.90;2.70;;;27.30;44.40;;;;;;5056902;28;20605;-53
2022/06/03 12:53:23;;;;;;;2.30;2.10;;;27.30;43.60;;;;;;5026189;28;20453;-48
2022/06/03 12:55:56;;;;;;;2.90;2.10;;;27.20;42.80;;;;;;5054556;28;20507;-43
2022/06/03 12:58:40;;;;;;;2.30;2.10;;;27.10;43.40;;;;;;5053478;28;20498;-45
2022/06/03 13:01:09;;;;;;;2.50;2.30;;;27.00;43.80;;;;;;5052494;28;20512;-44
2022/06/03 13:03:43;;;;;;;2.63;2.40;;;27.00;43.60;;;;;;5056056;28;20476;-47
2022/06/03 13:06:12;;;;;;;2.50;2.30;;;26.90;42.50;;;;;;5055819;28;20454;-46
2022/06/03 13:11:44;;;;;;;2.50;2.20;;;26.90;42.60;;;;;;5052542;28;20527;-46
2022/06/03 13:14:27;;;;;;;2.77;2.53;;;27.00;42.30;;;;;;5051859;28;20431;-44
2022/06/03 13:16:56;;;;;;;2.83;2.60;;;27.00;41.30;;;;;;5054103;28;20463;-45
2022/06/03 13:19:44;;;;;;;1.73;1.63;;;26.90;42.10;;;;;;5054725;28;20476;-48
2022/06/03 13:22:42;;;;;;;2.20;2.00;;;26.90;41.40;;;;;;5051824;28;20476;-50
2022/06/03 13:25:32;;;;;;;2.40;2.20;;;26.80;42.40;;;;;;5054910;28;20448;-46
2022/06/03 13:28:36;;;;;;;2.67;2.33;;;26.70;42.00;;;;;;5039801;28;20460;-44
2022/06/03 13:31:10;;;;;;;2.07;1.90;;;26.70;43.40;;;;;;5051346;28;20467;-51
2022/06/03 13:34:17;;;;;;;3.90;2.40;;;26.70;42.20;;;;;;5053129;28;20427;-46
2022/06/03 13:37:04;;;;;;;3.03;2.70;;;26.90;42.30;;;;;;5031885;28;20460;-47
2022/06/03 13:40:13;;;;;;;3.90;1.90;;;26.90;42.10;;;;;;5045318;28;20452;-49
2022/06/03 13:43:10;;;;;;;4.43;3.17;;;27.00;41.30;;;;;;4999744;28;20456;-41
2022/06/03 13:46:08;;;;;;;1.77;1.67;;;26.80;41.30;;;;;;5053777;28;20432;-47
2022/06/03 13:48:50;;;;;;;1.77;1.67;;;26.70;41.30;;;;;;5055303;28;20452;-48
2022/06/03 13:51:49;;;;;;;3.20;2.20;;;26.60;41.10;;;;;;5049660;28;20409;-54
2022/06/03 13:54:18;;;;;;;2.87;2.17;;;26.70;40.90;;;;;;5054799;28;20563;-44
2022/06/03 13:57:00;;;;;;;1.77;1.67;;;26.80;40.60;;;;;;5053368;28;20564;-57
2022/06/03 13:59:33;;;;;;;4.33;2.03;;;26.90;40.90;;;;;;5054780;28;20503;-43
2022/06/03 14:02:09;;;;;;;2.10;1.83;;;27.10;40.10;;;;;;5054433;28;20494;-44
2022/06/03 14:04:49;;;;;;;2.73;2.33;;;27.20;38.70;;;;;;5052732;28;20431;-48
2022/06/03 14:07:26;;;;;;;2.70;1.90;;;27.30;38.10;;;;;;5055414;28;20428;-56
2022/06/03 14:09:55;;;;;;;1.90;1.80;;;27.40;38.40;;;;;;5053632;28;20434;-46
2022/06/03 14:12:30;;;;;;;3.17;2.87;;;27.50;38.20;;;;;;5054046;28;20433;-47
2022/06/03 14:15:04;;;;;;;2.30;2.10;;;27.50;38.90;;;;;;5054906;28;20529;-44
2022/06/03 14:17:34;;;;;;;2.07;1.87;;;27.60;39.40;;;;;;5055602;28;20563;-44
2022/06/03 14:20:11;;;;;;;1.90;1.80;;;27.60;38.20;;;;;;5055529;28;20506;-42
2022/06/03 14:22:47;;;;;;;3.93;2.57;;;27.60;39.30;;;;;;5055094;28;20468;-48
2022/06/03 14:25:21;;;;;;;4.77;1.93;;;27.70;40.40;;;;;;5052392;28;20492;-50
2022/06/03 14:27:59;;;;;;;2.70;2.47;;;27.60;40.60;;;;;;5054241;28;20623;-49
2022/06/03 14:30:34;;;;;;;3.53;3.23;;;27.50;41.00;;;;;;5050719;28;20452;-46
2022/06/03 14:33:01;;;;;;;3.10;2.77;;;27.40;41.20;;;;;;5053209;28;20507;-49
2022/06/03 14:35:34;;;;;;;3.27;2.70;;;27.20;41.40;;;;;;5052962;28;20503;-48
2022/06/03 14:38:09;;;;;;;4.27;3.00;;;27.20;41.80;;;;;;5046939;28;20444;-55
2022/06/03 14:40:37;;;;;;;3.40;2.50;;;27.30;42.20;;;;;;5055227;28;20408;-49